Colt, AR (72326)

10:16 PM CDT on August 24, 2016 (GMT -0500)
marianna,arrkansas | | Change Station

Elev 230 ft 34.77 °N, 90.77 °W | Updated 9 minutes ago

Clear
Clear
79.7 °F
Feels Like 85 °F
N
0.0
Wind Variable Wind from West

Today
High -- | Low -- °F
--% Chance of Precip.
Yesterday
High -- | Low -- °F
Precip. -- in
Pressure 30.07 in
Visibility 10.0 miles
Clouds Clear
Heat Index 85 °F
Dew Point 76 °F
Humidity 88%
Rainfall 0.00 in
Snow Depth Not available.
6:30 AM 7:39 PM
Waning Gibbous, 50% visible
METAR KAWM 250253Z AUTO 20004KT 10SM CLR 26/24 A3008 RMK AO2 SLP182 T02610239 50005
Pressure 30.07 in
Visibility 10.0 miles
Clouds Clear
Heat Index 85 °F
Dew Point 76 °F
Humidity 88%
Rainfall 0.00 in
Snow Depth Not available.
6:30 AM 7:39 PM
Waning Gibbous, 50% visible
METAR KAWM 250253Z AUTO 20004KT 10SM CLR 26/24 A3008 RMK AO2 SLP182 T02610239 50005

10-Day Weather Forecast

Almanac

Astronomy

Aug. 24, 2016 Rise Set
Actual Time
Civil Twilight
Nautical Twilight
Astronomical Twilight
Moon
Length of Visible Light
Length of Day
Tomorrow will be .
, % of the Moon is Illuminated

Today's Extremes

State Highs State Lows

Community

WunderPhotos

Upload Photos

1,934,787 photos uploaded!

WunderBlog® & News

Nearby

Air Quality

  Air Quality AQ Index Pollutant
Not available.

Snow Depth

Station Depth Elevation

Earthquake Activity

City Distance Mag. Time & Date
Minimum magnitude displayed is 2.5.

Coastal Water Temperatures

Place Temperature

Stations

Nearby Weather Stations

Station Location Temp. Windchill Dew Point Humidity Wind Precip. Elev Updated Type
                   

Watches & Warnings

There are currently no watches in effect.